sensor_id;sensor_type;location;lat;lon;timestamp;P1;durP1;ratioP1;P2;durP2;ratioP2
77076;SDS011;66003;52.286;104.306;2023-06-26T00:00:43;0.55;;;0.08;;
77076;SDS011;66003;52.286;104.306;2023-06-26T00:03:09;0.80;;;0.47;;
77076;SDS011;66003;52.286;104.306;2023-06-26T00:05:40;0.32;;;0.32;;
77076;SDS011;66003;52.286;104.306;2023-06-26T00:08:07;0.30;;;0.03;;
77076;SDS011;66003;52.286;104.306;2023-06-26T00:13:00;0.40;;;0.10;;
77076;SDS011;66003;52.286;104.306;2023-06-26T00:15:27;0.40;;;0.28;;
77076;SDS011;66003;52.286;104.306;2023-06-26T00:17:59;0.22;;;0.05;;
77076;SDS011;66003;52.286;104.306;2023-06-26T00:20:26;0.10;;;0.00;;
77076;SDS011;66003;52.286;104.306;2023-06-26T00:22:52;2.25;;;0.20;;
77076;SDS011;66003;52.286;104.306;2023-06-26T00:25:19;0.32;;;0.30;;
77076;SDS011;66003;52.286;104.306;2023-06-26T00:27:45;0.93;;;0.00;;
77076;SDS011;66003;52.286;104.306;2023-06-26T00:30:12;0.45;;;0.43;;
77076;SDS011;66003;52.286;104.306;2023-06-26T00:35:04;0.68;;;0.22;;
77076;SDS011;66003;52.286;104.306;2023-06-26T00:37:31;0.55;;;0.22;;
77076;SDS011;66003;52.286;104.306;2023-06-26T00:39:57;0.32;;;0.00;;
77076;SDS011;66003;52.286;104.306;2023-06-26T00:42:23;0.60;;;0.10;;
77076;SDS011;66003;52.286;104.306;2023-06-26T00:44:49;0.17;;;0.08;;
77076;SDS011;66003;52.286;104.306;2023-06-26T00:47:15;0.40;;;0.30;;
77076;SDS011;66003;52.286;104.306;2023-06-26T00:49:43;0.45;;;0.45;;
77076;SDS011;66003;52.286;104.306;2023-06-26T00:52:09;0.82;;;0.22;;
77076;SDS011;66003;52.286;104.306;2023-06-26T00:54:36;0.38;;;0.22;;
77076;SDS011;66003;52.286;104.306;2023-06-26T00:59:28;0.88;;;0.25;;
77076;SDS011;66003;52.286;104.306;2023-06-26T01:01:55;0.15;;;0.03;;
77076;SDS011;66003;52.286;104.306;2023-06-26T01:04:21;0.22;;;0.22;;
77076;SDS011;66003;52.286;104.306;2023-06-26T01:06:53;0.50;;;0.10;;
77076;SDS011;66003;52.286;104.306;2023-06-26T01:09:21;0.20;;;0.15;;
77076;SDS011;66003;52.286;104.306;2023-06-26T01:11:49;1.02;;;0.55;;
77076;SDS011;66003;52.286;104.306;2023-06-26T01:14:16;0.40;;;0.05;;
77076;SDS011;66003;52.286;104.306;2023-06-26T01:16:42;0.13;;;0.03;;
77076;SDS011;66003;52.286;104.306;2023-06-26T01:19:20;0.22;;;0.00;;
77076;SDS011;66003;52.286;104.306;2023-06-26T01:27:38;0.73;;;0.00;;
77076;SDS011;66003;52.286;104.306;2023-06-26T01:30:06;1.52;;;0.25;;
77076;SDS011;66003;52.286;104.306;2023-06-26T01:32:33;0.70;;;0.17;;
77076;SDS011;66003;52.286;104.306;2023-06-26T01:35:00;0.32;;;0.32;;
77076;SDS011;66003;52.286;104.306;2023-06-26T01:37:30;1.45;;;0.13;;
77076;SDS011;66003;52.286;104.306;2023-06-26T01:39:56;0.35;;;0.30;;
77076;SDS011;66003;52.286;104.306;2023-06-26T01:42:22;1.35;;;0.73;;
77076;SDS011;66003;52.286;104.306;2023-06-26T01:44:48;0.35;;;0.13;;
77076;SDS011;66003;52.286;104.306;2023-06-26T01:47:19;1.33;;;0.05;;
77076;SDS011;66003;52.286;104.306;2023-06-26T01:50:09;0.40;;;0.00;;
77076;SDS011;66003;52.286;104.306;2023-06-26T01:55:16;0.63;;;0.15;;
77076;SDS011;66003;52.286;104.306;2023-06-26T01:57:48;1.20;;;1.00;;
77076;SDS011;66003;52.286;104.306;2023-06-26T02:00:20;0.40;;;0.10;;
77076;SDS011;66003;52.286;104.306;2023-06-26T02:02:47;0.30;;;0.10;;
77076;SDS011;66003;52.286;104.306;2023-06-26T02:05:13;0.30;;;0.22;;
77076;SDS011;66003;52.286;104.306;2023-06-26T02:07:40;0.77;;;0.03;;
77076;SDS011;66003;52.286;104.306;2023-06-26T02:10:07;0.28;;;0.28;;
77076;SDS011;66003;52.286;104.306;2023-06-26T02:12:34;0.65;;;0.20;;
77076;SDS011;66003;52.286;104.306;2023-06-26T02:15:05;0.30;;;0.15;;
77076;SDS011;66003;52.286;104.306;2023-06-26T02:17:33;0.60;;;0.15;;
77076;SDS011;66003;52.286;104.306;2023-06-26T02:20:00;0.25;;;0.00;;
77076;SDS011;66003;52.286;104.306;2023-06-26T02:24:53;0.85;;;0.15;;
77076;SDS011;66003;52.286;104.306;2023-06-26T02:29:46;0.30;;;0.03;;
77076;SDS011;66003;52.286;104.306;2023-06-26T02:32:12;1.20;;;0.43;;
77076;SDS011;66003;52.286;104.306;2023-06-26T02:37:04;0.50;;;0.17;;
77076;SDS011;66003;52.286;104.306;2023-06-26T02:39:33;1.27;;;0.35;;
77076;SDS011;66003;52.286;104.306;2023-06-26T02:42:00;0.30;;;0.17;;
77076;SDS011;66003;52.286;104.306;2023-06-26T02:44:27;0.28;;;0.15;;
77076;SDS011;66003;52.286;104.306;2023-06-26T02:49:19;0.32;;;0.00;;
77076;SDS011;66003;52.286;104.306;2023-06-26T02:51:45;0.03;;;0.03;;
77076;SDS011;66003;52.286;104.306;2023-06-26T02:54:12;0.40;;;0.10;;
77076;SDS011;66003;52.286;104.306;2023-06-26T02:56:38;0.50;;;0.03;;
77076;SDS011;66003;52.286;104.306;2023-06-26T02:59:04;0.77;;;0.20;;
77076;SDS011;66003;52.286;104.306;2023-06-26T03:01:30;0.85;;;0.25;;
77076;SDS011;66003;52.286;104.306;2023-06-26T03:03:56;0.43;;;0.10;;
77076;SDS011;66003;52.286;104.306;2023-06-26T03:06:23;0.30;;;0.20;;
77076;SDS011;66003;52.286;104.306;2023-06-26T03:11:15;1.05;;;0.10;;
77076;SDS011;66003;52.286;104.306;2023-06-26T03:16:07;0.20;;;0.03;;
77076;SDS011;66003;52.286;104.306;2023-06-26T03:18:33;0.50;;;0.20;;
77076;SDS011;66003;52.286;104.306;2023-06-26T03:23:25;0.40;;;0.15;;
77076;SDS011;66003;52.286;104.306;2023-06-26T03:25:52;0.98;;;0.25;;
77076;SDS011;66003;52.286;104.306;2023-06-26T03:28:18;0.73;;;0.20;;
77076;SDS011;66003;52.286;104.306;2023-06-26T03:30:44;1.65;;;0.10;;
77076;SDS011;66003;52.286;104.306;2023-06-26T03:33:12;1.77;;;0.28;;
77076;SDS011;66003;52.286;104.306;2023-06-26T03:35:39;0.88;;;0.20;;
77076;SDS011;66003;52.286;104.306;2023-06-26T03:38:05;1.65;;;0.28;;
77076;SDS011;66003;52.286;104.306;2023-06-26T03:40:31;0.40;;;0.10;;
77076;SDS011;66003;52.286;104.306;2023-06-26T03:42:58;1.40;;;0.32;;
77076;SDS011;66003;52.286;104.306;2023-06-26T03:45:24;0.90;;;0.35;;
77076;SDS011;66003;52.286;104.306;2023-06-26T03:50:16;1.58;;;0.50;;
77076;SDS011;66003;52.286;104.306;2023-06-26T03:52:42;0.55;;;0.40;;
77076;SDS011;66003;52.286;104.306;2023-06-26T03:55:09;1.48;;;0.13;;
77076;SDS011;66003;52.286;104.306;2023-06-26T03:57:35;0.40;;;0.32;;
77076;SDS011;66003;52.286;104.306;2023-06-26T04:02:31;1.35;;;0.13;;
77076;SDS011;66003;52.286;104.306;2023-06-26T04:04:57;0.52;;;0.25;;
77076;SDS011;66003;52.286;104.306;2023-06-26T04:09:50;0.75;;;0.52;;
77076;SDS011;66003;52.286;104.306;2023-06-26T04:12:16;0.52;;;0.22;;
77076;SDS011;66003;52.286;104.306;2023-06-26T04:14:43;0.50;;;0.32;;
77076;SDS011;66003;52.286;104.306;2023-06-26T04:17:09;1.95;;;0.45;;
77076;SDS011;66003;52.286;104.306;2023-06-26T04:19:36;1.15;;;0.38;;
77076;SDS011;66003;52.286;104.306;2023-06-26T04:22:02;2.08;;;0.35;;
77076;SDS011;66003;52.286;104.306;2023-06-26T04:24:28;0.25;;;0.22;;
77076;SDS011;66003;52.286;104.306;2023-06-26T04:26:54;0.45;;;0.35;;
77076;SDS011;66003;52.286;104.306;2023-06-26T04:29:25;0.85;;;0.32;;
77076;SDS011;66003;52.286;104.306;2023-06-26T04:31:54;3.13;;;0.10;;
77076;SDS011;66003;52.286;104.306;2023-06-26T04:34:24;0.60;;;0.00;;
77076;SDS011;66003;52.286;104.306;2023-06-26T04:36:50;2.50;;;0.32;;
77076;SDS011;66003;52.286;104.306;2023-06-26T04:39:17;0.52;;;0.15;;
77076;SDS011;66003;52.286;104.306;2023-06-26T04:41:44;1.42;;;0.10;;
77076;SDS011;66003;52.286;104.306;2023-06-26T04:44:10;0.70;;;0.38;;
77076;SDS011;66003;52.286;104.306;2023-06-26T04:46:37;0.40;;;0.25;;
77076;SDS011;66003;52.286;104.306;2023-06-26T04:49:09;2.83;;;0.10;;
77076;SDS011;66003;52.286;104.306;2023-06-26T04:51:36;1.15;;;0.43;;
77076;SDS011;66003;52.286;104.306;2023-06-26T04:54:09;0.13;;;0.00;;
77076;SDS011;66003;52.286;104.306;2023-06-26T04:56:36;0.25;;;0.22;;
77076;SDS011;66003;52.286;104.306;2023-06-26T04:59:05;0.85;;;0.22;;
77076;SDS011;66003;52.286;104.306;2023-06-26T05:04:00;1.42;;;0.43;;
77076;SDS011;66003;52.286;104.306;2023-06-26T05:06:30;0.88;;;0.32;;
77076;SDS011;66003;52.286;104.306;2023-06-26T05:11:22;2.05;;;0.22;;
77076;SDS011;66003;52.286;104.306;2023-06-26T05:13:50;1.25;;;0.25;;
77076;SDS011;66003;52.286;104.306;2023-06-26T05:18:42;1.30;;;0.28;;
77076;SDS011;66003;52.286;104.306;2023-06-26T05:21:08;0.75;;;0.32;;
77076;SDS011;66003;52.286;104.306;2023-06-26T05:23:35;0.38;;;0.00;;
77076;SDS011;66003;52.286;104.306;2023-06-26T05:26:01;1.23;;;0.57;;
77076;SDS011;66003;52.286;104.306;2023-06-26T05:28:29;0.60;;;0.43;;
77076;SDS011;66003;52.286;104.306;2023-06-26T05:30:59;0.40;;;0.30;;
77076;SDS011;66003;52.286;104.306;2023-06-26T05:33:26;2.15;;;0.20;;
77076;SDS011;66003;52.286;104.306;2023-06-26T05:35:53;1.50;;;0.55;;
77076;SDS011;66003;52.286;104.306;2023-06-26T05:38:27;3.70;;;0.30;;
77076;SDS011;66003;52.286;104.306;2023-06-26T05:40:53;1.15;;;0.75;;
77076;SDS011;66003;52.286;104.306;2023-06-26T05:43:20;1.27;;;0.22;;
77076;SDS011;66003;52.286;104.306;2023-06-26T05:45:48;2.70;;;0.10;;
77076;SDS011;66003;52.286;104.306;2023-06-26T05:48:14;1.08;;;0.10;;
77076;SDS011;66003;52.286;104.306;2023-06-26T05:53:08;3.72;;;0.65;;
77076;SDS011;66003;52.286;104.306;2023-06-26T05:55:38;2.97;;;0.10;;
77076;SDS011;66003;52.286;104.306;2023-06-26T05:58:06;1.20;;;0.10;;
77076;SDS011;66003;52.286;104.306;2023-06-26T06:00:33;3.05;;;0.35;;
77076;SDS011;66003;52.286;104.306;2023-06-26T06:03:03;1.33;;;0.10;;
77076;SDS011;66003;52.286;104.306;2023-06-26T06:05:32;0.90;;;0.28;;
77076;SDS011;66003;52.286;104.306;2023-06-26T06:10:24;2.30;;;0.20;;
77076;SDS011;66003;52.286;104.306;2023-06-26T06:12:50;1.98;;;0.38;;
77076;SDS011;66003;52.286;104.306;2023-06-26T06:15:17;1.20;;;0.35;;
77076;SDS011;66003;52.286;104.306;2023-06-26T06:17:44;0.30;;;0.05;;
77076;SDS011;66003;52.286;104.306;2023-06-26T06:20:26;3.00;;;0.20;;
77076;SDS011;66003;52.286;104.306;2023-06-26T06:23:43;0.65;;;0.32;;
77076;SDS011;66003;52.286;104.306;2023-06-26T06:26:09;2.83;;;0.95;;
77076;SDS011;66003;52.286;104.306;2023-06-26T06:31:02;1.20;;;0.38;;
77076;SDS011;66003;52.286;104.306;2023-06-26T06:33:28;1.17;;;0.52;;
77076;SDS011;66003;52.286;104.306;2023-06-26T06:38:23;6.93;;;0.43;;
77076;SDS011;66003;52.286;104.306;2023-06-26T06:40:50;1.38;;;0.47;;
77076;SDS011;66003;52.286;104.306;2023-06-26T06:43:16;0.40;;;0.28;;
77076;SDS011;66003;52.286;104.306;2023-06-26T06:48:08;2.80;;;0.52;;
77076;SDS011;66003;52.286;104.306;2023-06-26T06:50:39;2.20;;;0.73;;
77076;SDS011;66003;52.286;104.306;2023-06-26T06:53:12;3.28;;;0.55;;
77076;SDS011;66003;52.286;104.306;2023-06-26T06:55:38;2.10;;;0.45;;
77076;SDS011;66003;52.286;104.306;2023-06-26T06:58:07;1.15;;;0.28;;
77076;SDS011;66003;52.286;104.306;2023-06-26T07:00:33;4.00;;;0.73;;
77076;SDS011;66003;52.286;104.306;2023-06-26T07:02:59;3.72;;;0.88;;
77076;SDS011;66003;52.286;104.306;2023-06-26T07:05:26;1.20;;;0.43;;
77076;SDS011;66003;52.286;104.306;2023-06-26T07:07:52;2.45;;;0.30;;
77076;SDS011;66003;52.286;104.306;2023-06-26T07:10:18;3.97;;;0.63;;
77076;SDS011;66003;52.286;104.306;2023-06-26T07:15:45;4.90;;;1.40;;
77076;SDS011;66003;52.286;104.306;2023-06-26T07:18:13;5.75;;;1.00;;
77076;SDS011;66003;52.286;104.306;2023-06-26T07:20:40;3.08;;;0.47;;
77076;SDS011;66003;52.286;104.306;2023-06-26T07:23:07;1.73;;;0.68;;
77076;SDS011;66003;52.286;104.306;2023-06-26T07:25:34;4.03;;;0.55;;
77076;SDS011;66003;52.286;104.306;2023-06-26T07:28:00;2.47;;;0.73;;
77076;SDS011;66003;52.286;104.306;2023-06-26T07:30:27;3.78;;;0.47;;
77076;SDS011;66003;52.286;104.306;2023-06-26T07:32:53;3.17;;;0.65;;
77076;SDS011;66003;52.286;104.306;2023-06-26T07:35:20;1.98;;;0.35;;
77076;SDS011;66003;52.286;104.306;2023-06-26T07:37:46;2.03;;;0.50;;
77076;SDS011;66003;52.286;104.306;2023-06-26T07:40:12;3.75;;;0.55;;
77076;SDS011;66003;52.286;104.306;2023-06-26T07:42:38;5.18;;;0.45;;
77076;SDS011;66003;52.286;104.306;2023-06-26T07:45:06;4.13;;;0.63;;
77076;SDS011;66003;52.286;104.306;2023-06-26T07:47:36;1.80;;;0.20;;
77076;SDS011;66003;52.286;104.306;2023-06-26T07:50:03;2.83;;;0.28;;
77076;SDS011;66003;52.286;104.306;2023-06-26T07:52:30;3.97;;;0.65;;
77076;SDS011;66003;52.286;104.306;2023-06-26T07:54:56;2.25;;;1.00;;
77076;SDS011;66003;52.286;104.306;2023-06-26T07:57:23;3.53;;;0.52;;
77076;SDS011;66003;52.286;104.306;2023-06-26T07:59:49;3.22;;;0.88;;
77076;SDS011;66003;52.286;104.306;2023-06-26T08:02:16;2.85;;;1.13;;
77076;SDS011;66003;52.286;104.306;2023-06-26T08:04:43;5.18;;;2.35;;
77076;SDS011;66003;52.286;104.306;2023-06-26T08:07:09;5.53;;;1.55;;
77076;SDS011;66003;52.286;104.306;2023-06-26T08:09:36;6.50;;;1.42;;
77076;SDS011;66003;52.286;104.306;2023-06-26T08:12:03;3.60;;;0.75;;
77076;SDS011;66003;52.286;104.306;2023-06-26T08:14:29;3.05;;;0.90;;
77076;SDS011;66003;52.286;104.306;2023-06-26T08:16:56;2.40;;;0.65;;
77076;SDS011;66003;52.286;104.306;2023-06-26T08:19:25;4.78;;;1.10;;
77076;SDS011;66003;52.286;104.306;2023-06-26T08:21:51;3.15;;;0.57;;
77076;SDS011;66003;52.286;104.306;2023-06-26T08:24:17;4.95;;;0.50;;
77076;SDS011;66003;52.286;104.306;2023-06-26T08:26:45;7.50;;;2.75;;
77076;SDS011;66003;52.286;104.306;2023-06-26T08:29:12;6.85;;;1.60;;
77076;SDS011;66003;52.286;104.306;2023-06-26T08:31:39;5.53;;;1.85;;
77076;SDS011;66003;52.286;104.306;2023-06-26T08:34:06;6.95;;;1.23;;
77076;SDS011;66003;52.286;104.306;2023-06-26T08:36:32;8.50;;;1.55;;
77076;SDS011;66003;52.286;104.306;2023-06-26T08:38:59;5.10;;;1.38;;
77076;SDS011;66003;52.286;104.306;2023-06-26T08:41:25;3.40;;;0.35;;
77076;SDS011;66003;52.286;104.306;2023-06-26T08:43:51;4.45;;;0.43;;
77076;SDS011;66003;52.286;104.306;2023-06-26T08:46:19;2.47;;;0.15;;
77076;SDS011;66003;52.286;104.306;2023-06-26T08:48:49;4.10;;;0.38;;
77076;SDS011;66003;52.286;104.306;2023-06-26T08:51:23;2.40;;;1.27;;
77076;SDS011;66003;52.286;104.306;2023-06-26T08:53:58;4.78;;;0.65;;
77076;SDS011;66003;52.286;104.306;2023-06-26T08:56:28;3.80;;;0.65;;
77076;SDS011;66003;52.286;104.306;2023-06-26T08:58:58;7.95;;;1.02;;
77076;SDS011;66003;52.286;104.306;2023-06-26T09:01:25;4.35;;;0.85;;
77076;SDS011;66003;52.286;104.306;2023-06-26T09:03:51;5.38;;;0.98;;
77076;SDS011;66003;52.286;104.306;2023-06-26T09:06:18;4.90;;;1.00;;
77076;SDS011;66003;52.286;104.306;2023-06-26T09:08:44;4.72;;;0.35;;
77076;SDS011;66003;52.286;104.306;2023-06-26T09:11:11;2.85;;;0.57;;
77076;SDS011;66003;52.286;104.306;2023-06-26T09:13:42;0.85;;;0.52;;
77076;SDS011;66003;52.286;104.306;2023-06-26T09:16:33;1.55;;;0.22;;
77076;SDS011;66003;52.286;104.306;2023-06-26T09:19:10;2.40;;;0.45;;
77076;SDS011;66003;52.286;104.306;2023-06-26T09:21:41;1.73;;;0.38;;
77076;SDS011;66003;52.286;104.306;2023-06-26T09:24:09;2.67;;;0.95;;
77076;SDS011;66003;52.286;104.306;2023-06-26T09:26:37;3.95;;;1.05;;
77076;SDS011;66003;52.286;104.306;2023-06-26T09:29:04;2.22;;;0.77;;
77076;SDS011;66003;52.286;104.306;2023-06-26T09:31:37;5.25;;;1.55;;
77076;SDS011;66003;52.286;104.306;2023-06-26T09:34:04;7.05;;;1.35;;
77076;SDS011;66003;52.286;104.306;2023-06-26T09:36:31;4.00;;;1.08;;
77076;SDS011;66003;52.286;104.306;2023-06-26T09:39:00;4.07;;;0.68;;
77076;SDS011;66003;52.286;104.306;2023-06-26T09:41:27;5.07;;;1.13;;
77076;SDS011;66003;52.286;104.306;2023-06-26T09:43:54;8.13;;;0.90;;
77076;SDS011;66003;52.286;104.306;2023-06-26T09:46:26;2.42;;;1.00;;
77076;SDS011;66003;52.286;104.306;2023-06-26T09:49:06;2.13;;;0.70;;
77076;SDS011;66003;52.286;104.306;2023-06-26T09:51:35;2.75;;;0.85;;
77076;SDS011;66003;52.286;104.306;2023-06-26T09:54:03;2.58;;;0.65;;
77076;SDS011;66003;52.286;104.306;2023-06-26T09:56:30;1.27;;;0.43;;
77076;SDS011;66003;52.286;104.306;2023-06-26T09:58:58;2.40;;;0.32;;
77076;SDS011;66003;52.286;104.306;2023-06-26T10:01:27;2.97;;;0.32;;
77076;SDS011;66003;52.286;104.306;2023-06-26T10:03:54;1.05;;;0.22;;
77076;SDS011;66003;52.286;104.306;2023-06-26T10:06:27;2.30;;;0.55;;
77076;SDS011;66003;52.286;104.306;2023-06-26T10:08:58;1.42;;;0.43;;
77076;SDS011;66003;52.286;104.306;2023-06-26T10:11:37;1.00;;;0.30;;
77076;SDS011;66003;52.286;104.306;2023-06-26T10:14:21;2.47;;;0.32;;
77076;SDS011;66003;52.286;104.306;2023-06-26T10:16:50;2.70;;;0.45;;
77076;SDS011;66003;52.286;104.306;2023-06-26T10:22:33;0.65;;;0.43;;
77076;SDS011;66003;52.286;104.306;2023-06-26T10:25:06;1.77;;;0.32;;
77076;SDS011;66003;52.286;104.306;2023-06-26T10:27:35;2.78;;;0.50;;
77076;SDS011;66003;52.286;104.306;2023-06-26T10:30:09;2.88;;;0.52;;
77076;SDS011;66003;52.286;104.306;2023-06-26T10:32:38;1.58;;;0.25;;
77076;SDS011;66003;52.286;104.306;2023-06-26T10:35:06;3.55;;;0.73;;
77076;SDS011;66003;52.286;104.306;2023-06-26T10:37:42;3.03;;;0.77;;
77076;SDS011;66003;52.286;104.306;2023-06-26T10:40:13;1.15;;;0.45;;
77076;SDS011;66003;52.286;104.306;2023-06-26T10:42:40;4.72;;;0.43;;
77076;SDS011;66003;52.286;104.306;2023-06-26T10:45:14;5.00;;;0.75;;
77076;SDS011;66003;52.286;104.306;2023-06-26T10:47:45;2.08;;;0.20;;
77076;SDS011;66003;52.286;104.306;2023-06-26T10:50:27;3.38;;;0.57;;
77076;SDS011;66003;52.286;104.306;2023-06-26T10:56:00;2.83;;;0.43;;
77076;SDS011;66003;52.286;104.306;2023-06-26T10:58:40;3.67;;;0.38;;
77076;SDS011;66003;52.286;104.306;2023-06-26T11:03:42;2.88;;;0.22;;
77076;SDS011;66003;52.286;104.306;2023-06-26T11:06:14;4.15;;;1.50;;
77076;SDS011;66003;52.286;104.306;2023-06-26T11:09:26;3.22;;;0.20;;
77076;SDS011;66003;52.286;104.306;2023-06-26T11:14:21;5.25;;;0.65;;
77076;SDS011;66003;52.286;104.306;2023-06-26T11:16:48;2.15;;;0.28;;
77076;SDS011;66003;52.286;104.306;2023-06-26T11:19:16;5.85;;;0.50;;
77076;SDS011;66003;52.286;104.306;2023-06-26T11:21:44;3.00;;;0.40;;
77076;SDS011;66003;52.286;104.306;2023-06-26T11:24:12;1.73;;;0.28;;
77076;SDS011;66003;52.286;104.306;2023-06-26T11:29:09;1.25;;;0.43;;
77076;SDS011;66003;52.286;104.306;2023-06-26T11:31:37;3.08;;;0.50;;
77076;SDS011;66003;52.286;104.306;2023-06-26T11:34:06;3.47;;;0.30;;
77076;SDS011;66003;52.286;104.306;2023-06-26T11:36:36;2.75;;;0.60;;
77076;SDS011;66003;52.286;104.306;2023-06-26T11:39:05;2.80;;;0.20;;
77076;SDS011;66003;52.286;104.306;2023-06-26T11:41:32;3.28;;;0.40;;
77076;SDS011;66003;52.286;104.306;2023-06-26T11:44:03;1.90;;;0.60;;
77076;SDS011;66003;52.286;104.306;2023-06-26T11:46:32;3.53;;;0.20;;
77076;SDS011;66003;52.286;104.306;2023-06-26T11:49:15;1.42;;;0.63;;
77076;SDS011;66003;52.286;104.306;2023-06-26T11:57:31;1.05;;;0.10;;
77076;SDS011;66003;52.286;104.306;2023-06-26T11:59:57;1.58;;;0.28;;
77076;SDS011;66003;52.286;104.306;2023-06-26T12:02:37;1.83;;;0.30;;
77076;SDS011;66003;52.286;104.306;2023-06-26T12:05:05;2.45;;;0.30;;
77076;SDS011;66003;52.286;104.306;2023-06-26T12:07:32;1.85;;;0.20;;
77076;SDS011;66003;52.286;104.306;2023-06-26T12:10:00;4.10;;;0.63;;
77076;SDS011;66003;52.286;104.306;2023-06-26T12:12:27;1.98;;;0.70;;
77076;SDS011;66003;52.286;104.306;2023-06-26T12:14:53;3.42;;;0.20;;
77076;SDS011;66003;52.286;104.306;2023-06-26T12:17:22;2.53;;;0.63;;
77076;SDS011;66003;52.286;104.306;2023-06-26T12:19:50;4.38;;;0.60;;
77076;SDS011;66003;52.286;104.306;2023-06-26T12:24:43;3.75;;;0.60;;
77076;SDS011;66003;52.286;104.306;2023-06-26T12:27:10;2.92;;;0.65;;
77076;SDS011;66003;52.286;104.306;2023-06-26T12:29:46;3.63;;;0.75;;
77076;SDS011;66003;52.286;104.306;2023-06-26T12:32:17;4.85;;;0.80;;
77076;SDS011;66003;52.286;104.306;2023-06-26T12:37:18;3.65;;;0.40;;
77076;SDS011;66003;52.286;104.306;2023-06-26T12:40:01;5.47;;;0.85;;
77076;SDS011;66003;52.286;104.306;2023-06-26T12:45:37;4.72;;;0.60;;
77076;SDS011;66003;52.286;104.306;2023-06-26T12:48:14;3.88;;;0.68;;
77076;SDS011;66003;52.286;104.306;2023-06-26T12:51:01;5.45;;;0.50;;
77076;SDS011;66003;52.286;104.306;2023-06-26T12:53:55;3.58;;;0.77;;
77076;SDS011;66003;52.286;104.306;2023-06-26T12:58:47;7.85;;;0.98;;
77076;SDS011;66003;52.286;104.306;2023-06-26T13:01:13;3.40;;;0.63;;
77076;SDS011;66003;52.286;104.306;2023-06-26T13:03:43;3.55;;;1.10;;
77076;SDS011;66003;52.286;104.306;2023-06-26T13:06:09;5.85;;;1.58;;
77076;SDS011;66003;52.286;104.306;2023-06-26T13:08:37;2.67;;;0.77;;
77076;SDS011;66003;52.286;104.306;2023-06-26T13:14:33;5.32;;;0.73;;
77076;SDS011;66003;52.286;104.306;2023-06-26T13:20:57;1.83;;;0.52;;
77076;SDS011;66003;52.286;104.306;2023-06-26T13:24:48;2.40;;;0.90;;
77076;SDS011;66003;52.286;104.306;2023-06-26T13:27:14;1.50;;;0.68;;
77076;SDS011;66003;52.286;104.306;2023-06-26T13:29:41;1.33;;;0.50;;
77076;SDS011;66003;52.286;104.306;2023-06-26T13:32:07;2.70;;;0.52;;
77076;SDS011;66003;52.286;104.306;2023-06-26T13:34:34;5.00;;;0.98;;
77076;SDS011;66003;52.286;104.306;2023-06-26T13:37:02;3.95;;;1.20;;
77076;SDS011;66003;52.286;104.306;2023-06-26T13:39:31;7.80;;;0.85;;
77076;SDS011;66003;52.286;104.306;2023-06-26T13:44:23;5.75;;;1.38;;
77076;SDS011;66003;52.286;104.306;2023-06-26T13:46:50;4.03;;;1.30;;
77076;SDS011;66003;52.286;104.306;2023-06-26T13:49:16;4.47;;;1.13;;
77076;SDS011;66003;52.286;104.306;2023-06-26T13:51:42;2.47;;;1.05;;
77076;SDS011;66003;52.286;104.306;2023-06-26T13:54:12;4.88;;;0.82;;
77076;SDS011;66003;52.286;104.306;2023-06-26T13:56:38;3.72;;;0.95;;
77076;SDS011;66003;52.286;104.306;2023-06-26T13:59:04;1.40;;;0.52;;
77076;SDS011;66003;52.286;104.306;2023-06-26T14:01:31;4.25;;;0.95;;
77076;SDS011;66003;52.286;104.306;2023-06-26T14:09:52;5.05;;;0.45;;
77076;SDS011;66003;52.286;104.306;2023-06-26T14:12:18;1.23;;;0.73;;
77076;SDS011;66003;52.286;104.306;2023-06-26T14:14:44;1.85;;;0.20;;
77076;SDS011;66003;52.286;104.306;2023-06-26T14:19:41;1.45;;;0.60;;
77076;SDS011;66003;52.286;104.306;2023-06-26T14:24:33;2.03;;;0.57;;
77076;SDS011;66003;52.286;104.306;2023-06-26T14:29:25;2.13;;;1.00;;
77076;SDS011;66003;52.286;104.306;2023-06-26T14:31:51;3.58;;;0.80;;
77076;SDS011;66003;52.286;104.306;2023-06-26T14:36:43;1.58;;;0.63;;
77076;SDS011;66003;52.286;104.306;2023-06-26T14:39:10;3.83;;;0.93;;
77076;SDS011;66003;52.286;104.306;2023-06-26T14:41:36;1.95;;;0.50;;
77076;SDS011;66003;52.286;104.306;2023-06-26T14:44:02;3.80;;;0.75;;
77076;SDS011;66003;52.286;104.306;2023-06-26T14:46:30;2.17;;;0.35;;
77076;SDS011;66003;52.286;104.306;2023-06-26T14:48:56;1.58;;;0.28;;
77076;SDS011;66003;52.286;104.306;2023-06-26T14:51:22;1.17;;;0.43;;
77076;SDS011;66003;52.286;104.306;2023-06-26T14:53:48;0.98;;;0.43;;
77076;SDS011;66003;52.286;104.306;2023-06-26T14:56:14;1.90;;;0.35;;
77076;SDS011;66003;52.286;104.306;2023-06-26T14:58:41;1.27;;;0.52;;
77076;SDS011;66003;52.286;104.306;2023-06-26T15:01:07;1.55;;;0.38;;
77076;SDS011;66003;52.286;104.306;2023-06-26T15:03:34;0.85;;;0.38;;
77076;SDS011;66003;52.286;104.306;2023-06-26T15:06:00;1.02;;;0.32;;
77076;SDS011;66003;52.286;104.306;2023-06-26T15:08:26;2.67;;;0.32;;
77076;SDS011;66003;52.286;104.306;2023-06-26T15:10:52;1.95;;;0.32;;
77076;SDS011;66003;52.286;104.306;2023-06-26T15:13:19;0.63;;;0.45;;
77076;SDS011;66003;52.286;104.306;2023-06-26T15:15:45;4.00;;;0.57;;
77076;SDS011;66003;52.286;104.306;2023-06-26T15:18:11;1.20;;;0.52;;
77076;SDS011;66003;52.286;104.306;2023-06-26T15:20:37;0.52;;;0.10;;
77076;SDS011;66003;52.286;104.306;2023-06-26T15:23:03;2.58;;;0.25;;
77076;SDS011;66003;52.286;104.306;2023-06-26T15:25:29;0.60;;;0.17;;
77076;SDS011;66003;52.286;104.306;2023-06-26T15:27:57;0.50;;;0.50;;
77076;SDS011;66003;52.286;104.306;2023-06-26T15:30:23;0.40;;;0.20;;
77076;SDS011;66003;52.286;104.306;2023-06-26T15:32:50;0.77;;;0.55;;
77076;SDS011;66003;52.286;104.306;2023-06-26T15:35:17;1.67;;;0.70;;
77076;SDS011;66003;52.286;104.306;2023-06-26T15:37:44;1.58;;;0.22;;
77076;SDS011;66003;52.286;104.306;2023-06-26T15:40:11;0.85;;;0.40;;
77076;SDS011;66003;52.286;104.306;2023-06-26T15:42:51;0.93;;;0.10;;
77076;SDS011;66003;52.286;104.306;2023-06-26T15:45:22;0.75;;;0.13;;
77076;SDS011;66003;52.286;104.306;2023-06-26T15:47:49;2.05;;;0.22;;
77076;SDS011;66003;52.286;104.306;2023-06-26T15:50:16;0.90;;;0.35;;
77076;SDS011;66003;52.286;104.306;2023-06-26T15:52:46;1.00;;;0.80;;
77076;SDS011;66003;52.286;104.306;2023-06-26T15:55:12;1.90;;;0.15;;
77076;SDS011;66003;52.286;104.306;2023-06-26T15:57:38;1.35;;;0.30;;
77076;SDS011;66003;52.286;104.306;2023-06-26T16:00:05;1.45;;;0.08;;
77076;SDS011;66003;52.286;104.306;2023-06-26T16:02:32;1.17;;;0.15;;
77076;SDS011;66003;52.286;104.306;2023-06-26T16:04:59;1.60;;;0.57;;
77076;SDS011;66003;52.286;104.306;2023-06-26T16:07:26;0.60;;;0.22;;
77076;SDS011;66003;52.286;104.306;2023-06-26T16:09:55;0.80;;;0.13;;
77076;SDS011;66003;52.286;104.306;2023-06-26T16:12:22;1.23;;;0.30;;
77076;SDS011;66003;52.286;104.306;2023-06-26T16:17:14;0.68;;;0.10;;
77076;SDS011;66003;52.286;104.306;2023-06-26T16:19:40;2.22;;;0.95;;
77076;SDS011;66003;52.286;104.306;2023-06-26T16:22:06;2.45;;;0.17;;
77076;SDS011;66003;52.286;104.306;2023-06-26T16:24:34;1.00;;;0.10;;
77076;SDS011;66003;52.286;104.306;2023-06-26T16:27:01;2.50;;;0.20;;
77076;SDS011;66003;52.286;104.306;2023-06-26T16:31:53;0.90;;;0.10;;